sensor_id;sensor_type;location;lat;lon;timestamp;P1;durP1;ratioP1;P2;durP2;ratioP2
62848;SDS011;48941;49.516;8.286;2022-10-03T00:01:32;8.25;;;4.97;;
62848;SDS011;48941;49.516;8.286;2022-10-03T00:04:12;7.38;;;4.47;;
62848;SDS011;48941;49.516;8.286;2022-10-03T00:07:01;6.57;;;4.38;;
62848;SDS011;48941;49.516;8.286;2022-10-03T00:09:45;8.93;;;4.65;;
62848;SDS011;48941;49.516;8.286;2022-10-03T00:12:34;8.57;;;4.70;;
62848;SDS011;48941;49.516;8.286;2022-10-03T00:15:14;9.15;;;4.82;;
62848;SDS011;48941;49.516;8.286;2022-10-03T00:17:49;5.70;;;4.15;;
62848;SDS011;48941;49.516;8.286;2022-10-03T00:20:37;8.63;;;4.00;;
62848;SDS011;48941;49.516;8.286;2022-10-03T00:23:16;11.05;;;4.22;;
62848;SDS011;48941;49.516;8.286;2022-10-03T00:25:52;8.00;;;4.28;;
62848;SDS011;48941;49.516;8.286;2022-10-03T00:28:38;7.40;;;4.50;;
62848;SDS011;48941;49.516;8.286;2022-10-03T00:31:15;8.77;;;5.00;;
62848;SDS011;48941;49.516;8.286;2022-10-03T00:33:54;8.40;;;4.50;;
62848;SDS011;48941;49.516;8.286;2022-10-03T00:36:36;7.45;;;4.25;;
62848;SDS011;48941;49.516;8.286;2022-10-03T00:39:17;7.85;;;4.85;;
62848;SDS011;48941;49.516;8.286;2022-10-03T00:42:00;8.63;;;4.28;;
62848;SDS011;48941;49.516;8.286;2022-10-03T00:47:59;9.23;;;4.20;;
62848;SDS011;48941;49.516;8.286;2022-10-03T00:50:52;6.72;;;4.32;;
62848;SDS011;48941;49.516;8.286;2022-10-03T00:53:47;10.13;;;4.45;;
62848;SDS011;48941;49.516;8.286;2022-10-03T00:59:15;6.80;;;4.38;;
62848;SDS011;48941;49.516;8.286;2022-10-03T01:01:54;12.65;;;5.30;;
62848;SDS011;48941;49.516;8.286;2022-10-03T01:07:28;9.35;;;4.50;;
62848;SDS011;48941;49.516;8.286;2022-10-03T01:10:24;7.72;;;4.80;;
62848;SDS011;48941;49.516;8.286;2022-10-03T01:13:07;10.40;;;5.00;;
62848;SDS011;48941;49.516;8.286;2022-10-03T01:15:54;11.25;;;4.70;;
62848;SDS011;48941;49.516;8.286;2022-10-03T01:18:33;8.55;;;4.60;;
62848;SDS011;48941;49.516;8.286;2022-10-03T01:21:08;9.15;;;4.85;;
62848;SDS011;48941;49.516;8.286;2022-10-03T01:26:53;11.13;;;4.55;;
62848;SDS011;48941;49.516;8.286;2022-10-03T01:29:37;8.27;;;4.90;;
62848;SDS011;48941;49.516;8.286;2022-10-03T01:32:29;14.05;;;5.38;;
62848;SDS011;48941;49.516;8.286;2022-10-03T01:35:08;11.45;;;5.32;;
62848;SDS011;48941;49.516;8.286;2022-10-03T01:37:44;9.18;;;4.53;;
62848;SDS011;48941;49.516;8.286;2022-10-03T01:40:21;9.25;;;4.65;;
62848;SDS011;48941;49.516;8.286;2022-10-03T01:42:59;8.15;;;4.65;;
62848;SDS011;48941;49.516;8.286;2022-10-03T01:45:41;15.02;;;5.00;;
62848;SDS011;48941;49.516;8.286;2022-10-03T01:48:18;9.98;;;5.03;;
62848;SDS011;48941;49.516;8.286;2022-10-03T01:50:56;13.75;;;5.00;;
62848;SDS011;48941;49.516;8.286;2022-10-03T01:53:31;9.48;;;4.88;;
62848;SDS011;48941;49.516;8.286;2022-10-03T01:56:08;13.13;;;5.80;;
62848;SDS011;48941;49.516;8.286;2022-10-03T01:58:46;12.52;;;4.70;;
62848;SDS011;48941;49.516;8.286;2022-10-03T02:01:25;8.30;;;4.90;;
62848;SDS011;48941;49.516;8.286;2022-10-03T02:04:02;11.48;;;5.15;;
62848;SDS011;48941;49.516;8.286;2022-10-03T02:06:41;12.98;;;5.43;;
62848;SDS011;48941;49.516;8.286;2022-10-03T02:09:18;6.65;;;4.72;;
62848;SDS011;48941;49.516;8.286;2022-10-03T02:11:59;6.57;;;5.05;;
62848;SDS011;48941;49.516;8.286;2022-10-03T02:14:33;9.23;;;4.75;;
62848;SDS011;48941;49.516;8.286;2022-10-03T02:17:18;11.80;;;5.03;;
62848;SDS011;48941;49.516;8.286;2022-10-03T02:19:54;10.57;;;5.28;;
62848;SDS011;48941;49.516;8.286;2022-10-03T02:22:31;8.20;;;4.72;;
62848;SDS011;48941;49.516;8.286;2022-10-03T02:25:08;8.40;;;4.80;;
62848;SDS011;48941;49.516;8.286;2022-10-03T02:27:57;10.63;;;5.10;;
62848;SDS011;48941;49.516;8.286;2022-10-03T02:30:55;10.88;;;5.15;;
62848;SDS011;48941;49.516;8.286;2022-10-03T02:33:41;9.70;;;5.10;;
62848;SDS011;48941;49.516;8.286;2022-10-03T02:46:09;11.02;;;5.10;;
62848;SDS011;48941;49.516;8.286;2022-10-03T02:49:15;10.93;;;5.18;;
62848;SDS011;48941;49.516;8.286;2022-10-03T02:58:07;10.27;;;5.05;;
62848;SDS011;48941;49.516;8.286;2022-10-03T03:04:28;12.48;;;4.80;;
62848;SDS011;48941;49.516;8.286;2022-10-03T03:07:35;9.52;;;4.65;;
62848;SDS011;48941;49.516;8.286;2022-10-03T03:10:21;7.70;;;4.85;;
62848;SDS011;48941;49.516;8.286;2022-10-03T03:22:22;9.50;;;4.90;;
62848;SDS011;48941;49.516;8.286;2022-10-03T03:25:06;7.93;;;4.70;;
62848;SDS011;48941;49.516;8.286;2022-10-03T03:27:47;9.13;;;5.20;;
62848;SDS011;48941;49.516;8.286;2022-10-03T03:30:28;10.82;;;5.22;;
62848;SDS011;48941;49.516;8.286;2022-10-03T03:33:04;11.65;;;5.57;;
62848;SDS011;48941;49.516;8.286;2022-10-03T03:35:42;11.32;;;5.57;;
62848;SDS011;48941;49.516;8.286;2022-10-03T03:38:23;13.15;;;5.38;;
62848;SDS011;48941;49.516;8.286;2022-10-03T03:41:11;8.27;;;5.05;;
62848;SDS011;48941;49.516;8.286;2022-10-03T03:43:56;12.55;;;5.70;;
62848;SDS011;48941;49.516;8.286;2022-10-03T03:46:39;9.70;;;5.22;;
62848;SDS011;48941;49.516;8.286;2022-10-03T03:49:25;10.13;;;5.40;;
62848;SDS011;48941;49.516;8.286;2022-10-03T03:52:04;11.27;;;5.25;;
62848;SDS011;48941;49.516;8.286;2022-10-03T03:57:50;8.75;;;5.25;;
62848;SDS011;48941;49.516;8.286;2022-10-03T04:00:36;6.57;;;4.50;;
62848;SDS011;48941;49.516;8.286;2022-10-03T04:03:27;10.35;;;4.78;;
62848;SDS011;48941;49.516;8.286;2022-10-03T04:09:07;9.15;;;5.00;;
62848;SDS011;48941;49.516;8.286;2022-10-03T04:11:56;8.73;;;4.85;;
62848;SDS011;48941;49.516;8.286;2022-10-03T04:14:39;7.55;;;5.10;;
62848;SDS011;48941;49.516;8.286;2022-10-03T04:17:35;10.02;;;5.13;;
62848;SDS011;48941;49.516;8.286;2022-10-03T04:20:37;10.32;;;5.25;;
62848;SDS011;48941;49.516;8.286;2022-10-03T04:23:25;11.10;;;5.45;;
62848;SDS011;48941;49.516;8.286;2022-10-03T04:26:14;12.00;;;5.55;;
62848;SDS011;48941;49.516;8.286;2022-10-03T04:28:56;11.82;;;5.57;;
62848;SDS011;48941;49.516;8.286;2022-10-03T04:31:48;10.18;;;5.88;;
62848;SDS011;48941;49.516;8.286;2022-10-03T04:34:27;13.85;;;5.82;;
62848;SDS011;48941;49.516;8.286;2022-10-03T04:37:07;13.02;;;5.80;;
62848;SDS011;48941;49.516;8.286;2022-10-03T04:39:47;7.72;;;4.97;;
62848;SDS011;48941;49.516;8.286;2022-10-03T04:42:26;7.47;;;5.13;;
62848;SDS011;48941;49.516;8.286;2022-10-03T04:45:16;8.70;;;5.47;;
62848;SDS011;48941;49.516;8.286;2022-10-03T04:47:58;10.25;;;5.22;;
62848;SDS011;48941;49.516;8.286;2022-10-03T04:50:38;13.60;;;5.32;;
62848;SDS011;48941;49.516;8.286;2022-10-03T04:53:16;8.10;;;4.93;;
62848;SDS011;48941;49.516;8.286;2022-10-03T04:55:52;10.13;;;5.15;;
62848;SDS011;48941;49.516;8.286;2022-10-03T04:58:29;9.63;;;5.20;;
62848;SDS011;48941;49.516;8.286;2022-10-03T05:01:07;6.43;;;5.05;;
62848;SDS011;48941;49.516;8.286;2022-10-03T05:03:44;9.82;;;5.05;;
62848;SDS011;48941;49.516;8.286;2022-10-03T05:09:19;8.63;;;4.78;;
62848;SDS011;48941;49.516;8.286;2022-10-03T05:11:55;7.75;;;4.93;;
62848;SDS011;48941;49.516;8.286;2022-10-03T05:14:36;10.18;;;4.80;;
62848;SDS011;48941;49.516;8.286;2022-10-03T05:17:17;9.88;;;4.88;;
62848;SDS011;48941;49.516;8.286;2022-10-03T05:19:51;6.72;;;4.90;;
62848;SDS011;48941;49.516;8.286;2022-10-03T05:22:31;8.05;;;5.00;;
62848;SDS011;48941;49.516;8.286;2022-10-03T05:25:17;8.40;;;5.18;;
62848;SDS011;48941;49.516;8.286;2022-10-03T05:27:53;5.82;;;4.72;;
62848;SDS011;48941;49.516;8.286;2022-10-03T05:30:34;9.75;;;5.60;;
62848;SDS011;48941;49.516;8.286;2022-10-03T05:33:16;10.55;;;5.30;;
62848;SDS011;48941;49.516;8.286;2022-10-03T05:35:57;13.00;;;5.50;;
62848;SDS011;48941;49.516;8.286;2022-10-03T05:41:49;11.25;;;5.63;;
62848;SDS011;48941;49.516;8.286;2022-10-03T05:44:40;9.20;;;5.15;;
62848;SDS011;48941;49.516;8.286;2022-10-03T05:47:12;10.77;;;5.03;;
62848;SDS011;48941;49.516;8.286;2022-10-03T05:50:13;9.50;;;5.32;;
62848;SDS011;48941;49.516;8.286;2022-10-03T05:56:06;7.32;;;4.78;;
62848;SDS011;48941;49.516;8.286;2022-10-03T06:01:54;7.13;;;4.90;;
62848;SDS011;48941;49.516;8.286;2022-10-03T06:07:38;31.30;;;15.02;;
62848;SDS011;48941;49.516;8.286;2022-10-03T06:13:20;29.42;;;15.95;;
62848;SDS011;48941;49.516;8.286;2022-10-03T06:16:07;25.33;;;11.57;;
62848;SDS011;48941;49.516;8.286;2022-10-03T06:21:59;14.98;;;8.63;;
62848;SDS011;48941;49.516;8.286;2022-10-03T06:31:19;14.52;;;6.57;;
62848;SDS011;48941;49.516;8.286;2022-10-03T06:37:54;15.52;;;6.00;;
62848;SDS011;48941;49.516;8.286;2022-10-03T06:43:46;10.75;;;5.88;;
62848;SDS011;48941;49.516;8.286;2022-10-03T06:46:41;11.88;;;5.45;;
62848;SDS011;48941;49.516;8.286;2022-10-03T06:49:30;10.52;;;5.35;;
62848;SDS011;48941;49.516;8.286;2022-10-03T06:58:27;18.25;;;5.93;;
62848;SDS011;48941;49.516;8.286;2022-10-03T07:04:24;11.43;;;6.28;;
62848;SDS011;48941;49.516;8.286;2022-10-03T07:07:19;8.60;;;5.05;;
62848;SDS011;48941;49.516;8.286;2022-10-03T07:10:17;7.60;;;5.47;;
62848;SDS011;48941;49.516;8.286;2022-10-03T07:16:26;11.10;;;5.93;;
62848;SDS011;48941;49.516;8.286;2022-10-03T07:19:27;13.15;;;7.15;;
62848;SDS011;48941;49.516;8.286;2022-10-03T07:22:14;10.20;;;5.25;;
62848;SDS011;48941;49.516;8.286;2022-10-03T07:25:18;9.68;;;5.35;;
62848;SDS011;48941;49.516;8.286;2022-10-03T07:28:03;11.05;;;5.05;;
62848;SDS011;48941;49.516;8.286;2022-10-03T07:30:57;12.60;;;6.75;;
62848;SDS011;48941;49.516;8.286;2022-10-03T07:33:52;10.80;;;5.60;;
62848;SDS011;48941;49.516;8.286;2022-10-03T07:36:41;13.35;;;5.93;;
62848;SDS011;48941;49.516;8.286;2022-10-03T07:49:09;14.60;;;5.57;;
62848;SDS011;48941;49.516;8.286;2022-10-03T07:51:53;10.55;;;5.18;;
62848;SDS011;48941;49.516;8.286;2022-10-03T07:54:50;11.30;;;5.07;;
62848;SDS011;48941;49.516;8.286;2022-10-03T07:57:40;8.88;;;4.85;;
62848;SDS011;48941;49.516;8.286;2022-10-03T08:00:31;14.20;;;5.60;;
62848;SDS011;48941;49.516;8.286;2022-10-03T08:06:23;9.02;;;5.30;;
62848;SDS011;48941;49.516;8.286;2022-10-03T08:09:18;14.60;;;5.70;;
62848;SDS011;48941;49.516;8.286;2022-10-03T08:15:01;12.90;;;5.70;;
62848;SDS011;48941;49.516;8.286;2022-10-03T08:20:55;13.57;;;7.03;;
62848;SDS011;48941;49.516;8.286;2022-10-03T08:26:35;10.35;;;6.10;;
62848;SDS011;48941;49.516;8.286;2022-10-03T08:32:46;13.30;;;5.95;;
62848;SDS011;48941;49.516;8.286;2022-10-03T08:38:57;11.80;;;5.32;;
62848;SDS011;48941;49.516;8.286;2022-10-03T08:44:45;15.50;;;6.05;;
62848;SDS011;48941;49.516;8.286;2022-10-03T08:47:46;12.67;;;5.33;;
62848;SDS011;48941;49.516;8.286;2022-10-03T08:50:59;13.95;;;5.22;;
62848;SDS011;48941;49.516;8.286;2022-10-03T08:53:54;12.32;;;4.93;;
62848;SDS011;48941;49.516;8.286;2022-10-03T08:56:54;16.70;;;4.97;;
62848;SDS011;48941;49.516;8.286;2022-10-03T09:12:37;14.50;;;5.38;;
62848;SDS011;48941;49.516;8.286;2022-10-03T09:15:49;11.65;;;4.13;;
62848;SDS011;48941;49.516;8.286;2022-10-03T09:18:49;10.43;;;5.03;;
62848;SDS011;48941;49.516;8.286;2022-10-03T09:31:22;9.88;;;5.10;;
62848;SDS011;48941;49.516;8.286;2022-10-03T09:34:22;15.13;;;4.47;;
62848;SDS011;48941;49.516;8.286;2022-10-03T09:37:21;11.77;;;4.10;;
62848;SDS011;48941;49.516;8.286;2022-10-03T09:43:13;15.93;;;6.93;;
62848;SDS011;48941;49.516;8.286;2022-10-03T09:46:06;16.30;;;6.97;;
62848;SDS011;48941;49.516;8.286;2022-10-03T09:52:06;12.23;;;5.68;;
62848;SDS011;48941;49.516;8.286;2022-10-03T09:54:55;10.93;;;4.72;;
62848;SDS011;48941;49.516;8.286;2022-10-03T09:57:49;12.07;;;5.45;;
62848;SDS011;48941;49.516;8.286;2022-10-03T10:00:45;11.88;;;5.90;;
62848;SDS011;48941;49.516;8.286;2022-10-03T10:07:23;9.68;;;4.70;;
62848;SDS011;48941;49.516;8.286;2022-10-03T10:10:19;10.52;;;3.97;;
62848;SDS011;48941;49.516;8.286;2022-10-03T10:16:46;6.95;;;3.72;;
62848;SDS011;48941;49.516;8.286;2022-10-03T10:19:38;9.85;;;3.70;;
62848;SDS011;48941;49.516;8.286;2022-10-03T10:22:37;8.93;;;4.10;;
62848;SDS011;48941;49.516;8.286;2022-10-03T10:29:02;9.38;;;3.83;;
62848;SDS011;48941;49.516;8.286;2022-10-03T10:35:15;9.00;;;3.45;;
62848;SDS011;48941;49.516;8.286;2022-10-03T10:38:03;7.40;;;4.10;;
62848;SDS011;48941;49.516;8.286;2022-10-03T10:44:16;9.18;;;3.88;;
62848;SDS011;48941;49.516;8.286;2022-10-03T10:47:36;9.52;;;3.03;;
62848;SDS011;48941;49.516;8.286;2022-10-03T10:57:03;7.13;;;3.05;;
62848;SDS011;48941;49.516;8.286;2022-10-03T11:08:56;9.95;;;2.72;;
62848;SDS011;48941;49.516;8.286;2022-10-03T11:15:23;8.60;;;2.05;;
62848;SDS011;48941;49.516;8.286;2022-10-03T11:27:58;6.35;;;2.22;;
62848;SDS011;48941;49.516;8.286;2022-10-03T11:37:32;8.18;;;2.25;;
62848;SDS011;48941;49.516;8.286;2022-10-03T11:40:10;4.05;;;1.88;;
62848;SDS011;48941;49.516;8.286;2022-10-03T11:42:51;3.92;;;1.65;;
62848;SDS011;48941;49.516;8.286;2022-10-03T11:45:27;7.07;;;2.00;;
62848;SDS011;48941;49.516;8.286;2022-10-03T11:48:06;5.85;;;2.00;;
62848;SDS011;48941;49.516;8.286;2022-10-03T11:50:47;9.48;;;2.22;;
62848;SDS011;48941;49.516;8.286;2022-10-03T11:56:19;5.07;;;2.08;;
62848;SDS011;48941;49.516;8.286;2022-10-03T11:59:07;5.35;;;2.30;;
62848;SDS011;48941;49.516;8.286;2022-10-03T12:01:59;6.30;;;2.38;;
62848;SDS011;48941;49.516;8.286;2022-10-03T12:04:41;3.15;;;2.00;;
62848;SDS011;48941;49.516;8.286;2022-10-03T12:07:18;6.05;;;2.00;;
62848;SDS011;48941;49.516;8.286;2022-10-03T12:10:28;4.50;;;2.15;;
62848;SDS011;48941;49.516;8.286;2022-10-03T12:13:07;4.80;;;1.88;;
62848;SDS011;48941;49.516;8.286;2022-10-03T12:15:40;3.03;;;1.95;;
62848;SDS011;48941;49.516;8.286;2022-10-03T12:18:15;5.93;;;1.60;;
62848;SDS011;48941;49.516;8.286;2022-10-03T12:21:08;6.22;;;2.30;;
62848;SDS011;48941;49.516;8.286;2022-10-03T12:23:44;7.55;;;1.95;;
62848;SDS011;48941;49.516;8.286;2022-10-03T12:26:26;3.90;;;2.00;;
62848;SDS011;48941;49.516;8.286;2022-10-03T12:29:02;5.90;;;2.20;;
62848;SDS011;48941;49.516;8.286;2022-10-03T12:31:37;4.07;;;1.80;;
62848;SDS011;48941;49.516;8.286;2022-10-03T12:34:14;5.97;;;1.90;;
62848;SDS011;48941;49.516;8.286;2022-10-03T12:36:58;4.25;;;1.95;;
62848;SDS011;48941;49.516;8.286;2022-10-03T12:39:38;5.00;;;2.38;;
62848;SDS011;48941;49.516;8.286;2022-10-03T12:42:18;9.52;;;2.53;;
62848;SDS011;48941;49.516;8.286;2022-10-03T12:44:54;3.58;;;1.75;;
62848;SDS011;48941;49.516;8.286;2022-10-03T12:47:27;4.85;;;2.25;;
62848;SDS011;48941;49.516;8.286;2022-10-03T12:50:25;4.57;;;1.90;;
62848;SDS011;48941;49.516;8.286;2022-10-03T12:53:14;6.45;;;1.80;;
62848;SDS011;48941;49.516;8.286;2022-10-03T12:58:43;4.78;;;1.75;;
62848;SDS011;48941;49.516;8.286;2022-10-03T13:01:20;7.68;;;2.10;;
62848;SDS011;48941;49.516;8.286;2022-10-03T13:03:57;6.53;;;2.47;;
62848;SDS011;48941;49.516;8.286;2022-10-03T13:06:42;3.47;;;1.98;;
62848;SDS011;48941;49.516;8.286;2022-10-03T13:09:40;6.25;;;1.92;;
62848;SDS011;48941;49.516;8.286;2022-10-03T13:12:33;4.90;;;2.05;;
62848;SDS011;48941;49.516;8.286;2022-10-03T13:18:03;8.90;;;2.15;;
62848;SDS011;48941;49.516;8.286;2022-10-03T13:20:42;4.85;;;1.92;;
62848;SDS011;48941;49.516;8.286;2022-10-03T13:23:24;7.40;;;2.08;;
62848;SDS011;48941;49.516;8.286;2022-10-03T13:26:05;5.45;;;1.80;;
62848;SDS011;48941;49.516;8.286;2022-10-03T13:28:50;3.70;;;1.83;;
62848;SDS011;48941;49.516;8.286;2022-10-03T13:31:27;4.57;;;1.80;;
62848;SDS011;48941;49.516;8.286;2022-10-03T13:33:59;7.97;;;2.13;;
62848;SDS011;48941;49.516;8.286;2022-10-03T13:36:32;3.83;;;1.83;;
62848;SDS011;48941;49.516;8.286;2022-10-03T13:39:15;6.13;;;2.05;;
62848;SDS011;48941;49.516;8.286;2022-10-03T13:44:37;8.02;;;1.60;;
62848;SDS011;48941;49.516;8.286;2022-10-03T13:47:24;4.40;;;1.80;;
62848;SDS011;48941;49.516;8.286;2022-10-03T13:49:58;3.78;;;1.67;;
62848;SDS011;48941;49.516;8.286;2022-10-03T13:52:32;7.00;;;2.13;;
62848;SDS011;48941;49.516;8.286;2022-10-03T13:55:13;8.38;;;2.45;;
62848;SDS011;48941;49.516;8.286;2022-10-03T13:57:46;7.72;;;2.40;;
62848;SDS011;48941;49.516;8.286;2022-10-03T14:00:29;5.93;;;2.65;;
62848;SDS011;48941;49.516;8.286;2022-10-03T14:03:13;6.47;;;2.80;;
62848;SDS011;48941;49.516;8.286;2022-10-03T14:05:49;6.45;;;2.45;;
62848;SDS011;48941;49.516;8.286;2022-10-03T14:08:29;6.68;;;2.25;;
62848;SDS011;48941;49.516;8.286;2022-10-03T14:11:17;4.75;;;2.35;;
62848;SDS011;48941;49.516;8.286;2022-10-03T14:13:54;8.05;;;2.38;;
62848;SDS011;48941;49.516;8.286;2022-10-03T14:16:50;8.85;;;2.95;;
62848;SDS011;48941;49.516;8.286;2022-10-03T14:19:30;5.80;;;2.55;;
62848;SDS011;48941;49.516;8.286;2022-10-03T14:22:09;5.35;;;2.58;;
62848;SDS011;48941;49.516;8.286;2022-10-03T14:24:50;9.68;;;3.03;;
62848;SDS011;48941;49.516;8.286;2022-10-03T14:27:40;7.72;;;2.80;;
62848;SDS011;48941;49.516;8.286;2022-10-03T14:30:13;5.15;;;2.90;;
62848;SDS011;48941;49.516;8.286;2022-10-03T14:32:48;9.48;;;2.60;;
62848;SDS011;48941;49.516;8.286;2022-10-03T14:35:30;6.13;;;2.83;;
62848;SDS011;48941;49.516;8.286;2022-10-03T14:38:08;5.95;;;2.50;;
62848;SDS011;48941;49.516;8.286;2022-10-03T14:40:47;6.22;;;2.35;;
62848;SDS011;48941;49.516;8.286;2022-10-03T14:43:21;4.60;;;2.42;;
62848;SDS011;48941;49.516;8.286;2022-10-03T14:46:00;6.30;;;2.30;;
62848;SDS011;48941;49.516;8.286;2022-10-03T14:48:29;5.28;;;2.00;;
62848;SDS011;48941;49.516;8.286;2022-10-03T14:51:12;3.75;;;2.20;;
62848;SDS011;48941;49.516;8.286;2022-10-03T14:53:46;9.95;;;2.72;;
62848;SDS011;48941;49.516;8.286;2022-10-03T14:56:20;6.45;;;2.45;;
62848;SDS011;48941;49.516;8.286;2022-10-03T14:58:52;5.80;;;2.35;;
62848;SDS011;48941;49.516;8.286;2022-10-03T15:01:22;7.43;;;2.77;;
62848;SDS011;48941;49.516;8.286;2022-10-03T15:03:57;4.85;;;2.80;;
62848;SDS011;48941;49.516;8.286;2022-10-03T15:09:20;6.57;;;2.88;;
62848;SDS011;48941;49.516;8.286;2022-10-03T15:12:00;6.15;;;2.78;;
62848;SDS011;48941;49.516;8.286;2022-10-03T15:14:34;4.40;;;2.70;;
62848;SDS011;48941;49.516;8.286;2022-10-03T15:17:14;8.98;;;2.85;;
62848;SDS011;48941;49.516;8.286;2022-10-03T15:19:44;6.90;;;2.80;;
62848;SDS011;48941;49.516;8.286;2022-10-03T15:22:20;8.50;;;3.03;;
62848;SDS011;48941;49.516;8.286;2022-10-03T15:24:55;10.23;;;3.05;;
62848;SDS011;48941;49.516;8.286;2022-10-03T15:27:27;5.05;;;3.00;;
62848;SDS011;48941;49.516;8.286;2022-10-03T15:29:58;7.22;;;3.20;;
62848;SDS011;48941;49.516;8.286;2022-10-03T15:32:29;6.68;;;2.65;;
62848;SDS011;48941;49.516;8.286;2022-10-03T15:35:02;5.85;;;2.95;;
62848;SDS011;48941;49.516;8.286;2022-10-03T15:37:33;7.65;;;2.95;;
62848;SDS011;48941;49.516;8.286;2022-10-03T15:40:18;6.78;;;2.92;;
62848;SDS011;48941;49.516;8.286;2022-10-03T15:42:50;7.38;;;3.15;;
62848;SDS011;48941;49.516;8.286;2022-10-03T15:45:29;5.18;;;3.03;;
62848;SDS011;48941;49.516;8.286;2022-10-03T15:47:59;6.23;;;3.03;;
62848;SDS011;48941;49.516;8.286;2022-10-03T15:50:33;8.75;;;3.10;;
62848;SDS011;48941;49.516;8.286;2022-10-03T15:53:06;8.75;;;3.28;;
62848;SDS011;48941;49.516;8.286;2022-10-03T15:56:04;9.30;;;3.30;;
62848;SDS011;48941;49.516;8.286;2022-10-03T15:58:37;8.73;;;3.50;;
62848;SDS011;48941;49.516;8.286;2022-10-03T16:01:15;7.38;;;3.20;;
62848;SDS011;48941;49.516;8.286;2022-10-03T16:03:49;8.98;;;3.20;;
62848;SDS011;48941;49.516;8.286;2022-10-03T16:06:19;9.63;;;3.45;;
62848;SDS011;48941;49.516;8.286;2022-10-03T16:08:54;7.20;;;3.15;;
62848;SDS011;48941;49.516;8.286;2022-10-03T16:11:26;6.38;;;3.05;;
62848;SDS011;48941;49.516;8.286;2022-10-03T16:14:03;4.70;;;3.20;;
62848;SDS011;48941;49.516;8.286;2022-10-03T16:19:24;7.22;;;3.05;;
62848;SDS011;48941;49.516;8.286;2022-10-03T16:22:07;6.40;;;2.90;;
62848;SDS011;48941;49.516;8.286;2022-10-03T16:24:40;5.40;;;3.00;;
62848;SDS011;48941;49.516;8.286;2022-10-03T16:27:13;8.95;;;3.20;;
62848;SDS011;48941;49.516;8.286;2022-10-03T16:29:49;4.65;;;3.10;;
62848;SDS011;48941;49.516;8.286;2022-10-03T16:32:24;7.43;;;3.38;;
62848;SDS011;48941;49.516;8.286;2022-10-03T16:34:56;9.68;;;3.28;;
62848;SDS011;48941;49.516;8.286;2022-10-03T16:37:28;6.53;;;3.00;;
62848;SDS011;48941;49.516;8.286;2022-10-03T16:39:58;9.57;;;3.25;;
62848;SDS011;48941;49.516;8.286;2022-10-03T16:42:34;4.45;;;3.08;;
62848;SDS011;48941;49.516;8.286;2022-10-03T16:45:12;7.47;;;3.63;;
62848;SDS011;48941;49.516;8.286;2022-10-03T16:47:49;7.30;;;3.20;;
62848;SDS011;48941;49.516;8.286;2022-10-03T16:50:33;7.28;;;3.35;;
62848;SDS011;48941;49.516;8.286;2022-10-03T16:53:06;6.15;;;3.40;;
62848;SDS011;48941;49.516;8.286;2022-10-03T16:55:38;6.43;;;3.60;;
62848;SDS011;48941;49.516;8.286;2022-10-03T16:58:14;7.38;;;4.20;;
62848;SDS011;48941;49.516;8.286;2022-10-03T17:00:50;10.07;;;4.32;;
62848;SDS011;48941;49.516;8.286;2022-10-03T17:03:45;10.68;;;4.50;;
62848;SDS011;48941;49.516;8.286;2022-10-03T17:06:18;9.15;;;4.10;;
62848;SDS011;48941;49.516;8.286;2022-10-03T17:08:48;10.93;;;4.25;;
62848;SDS011;48941;49.516;8.286;2022-10-03T17:11:18;8.00;;;4.13;;
62848;SDS011;48941;49.516;8.286;2022-10-03T17:13:52;8.93;;;4.70;;
62848;SDS011;48941;49.516;8.286;2022-10-03T17:16:25;10.98;;;5.40;;
62848;SDS011;48941;49.516;8.286;2022-10-03T17:19:18;15.38;;;5.32;;
62848;SDS011;48941;49.516;8.286;2022-10-03T17:21:53;13.30;;;6.00;;
62848;SDS011;48941;49.516;8.286;2022-10-03T17:24:29;13.63;;;6.40;;
62848;SDS011;48941;49.516;8.286;2022-10-03T17:27:06;12.90;;;6.68;;
62848;SDS011;48941;49.516;8.286;2022-10-03T17:29:41;11.57;;;5.43;;
62848;SDS011;48941;49.516;8.286;2022-10-03T17:32:17;14.63;;;6.72;;
62848;SDS011;48941;49.516;8.286;2022-10-03T17:34:52;13.05;;;7.03;;
62848;SDS011;48941;49.516;8.286;2022-10-03T17:37:33;12.00;;;6.50;;
62848;SDS011;48941;49.516;8.286;2022-10-03T17:40:15;13.43;;;6.78;;
62848;SDS011;48941;49.516;8.286;2022-10-03T17:42:50;16.75;;;8.57;;
62848;SDS011;48941;49.516;8.286;2022-10-03T17:45:28;14.75;;;7.90;;
62848;SDS011;48941;49.516;8.286;2022-10-03T17:48:03;18.00;;;9.60;;
62848;SDS011;48941;49.516;8.286;2022-10-03T17:50:43;22.00;;;9.23;;
62848;SDS011;48941;49.516;8.286;2022-10-03T17:53:20;12.95;;;7.85;;
62848;SDS011;48941;49.516;8.286;2022-10-03T17:55:53;16.95;;;7.90;;
62848;SDS011;48941;49.516;8.286;2022-10-03T17:58:22;13.63;;;7.55;;
62848;SDS011;48941;49.516;8.286;2022-10-03T18:00:54;12.27;;;5.85;;
62848;SDS011;48941;49.516;8.286;2022-10-03T18:03:27;8.45;;;5.20;;
62848;SDS011;48941;49.516;8.286;2022-10-03T18:06:23;9.68;;;5.38;;
62848;SDS011;48941;49.516;8.286;2022-10-03T18:09:19;9.68;;;4.95;;
62848;SDS011;48941;49.516;8.286;2022-10-03T18:12:01;10.50;;;5.57;;
62848;SDS011;48941;49.516;8.286;2022-10-03T18:14:40;10.23;;;5.70;;
62848;SDS011;48941;49.516;8.286;2022-10-03T18:17:23;11.35;;;6.15;;
62848;SDS011;48941;49.516;8.286;2022-10-03T18:20:06;14.20;;;6.50;;
62848;SDS011;48941;49.516;8.286;2022-10-03T18:22:53;9.52;;;6.65;;
62848;SDS011;48941;49.516;8.286;2022-10-03T18:25:26;15.15;;;7.47;;
62848;SDS011;48941;49.516;8.286;2022-10-03T18:28:36;15.77;;;8.75;;
62848;SDS011;48941;49.516;8.286;2022-10-03T18:31:14;18.83;;;8.85;;
62848;SDS011;48941;49.516;8.286;2022-10-03T18:33:45;11.88;;;7.90;;
62848;SDS011;48941;49.516;8.286;2022-10-03T18:36:20;10.07;;;6.55;;
62848;SDS011;48941;49.516;8.286;2022-10-03T18:38:54;12.90;;;6.75;;
62848;SDS011;48941;49.516;8.286;2022-10-03T18:41:26;13.15;;;6.57;;
62848;SDS011;48941;49.516;8.286;2022-10-03T18:43:54;12.88;;;7.55;;
62848;SDS011;48941;49.516;8.286;2022-10-03T18:46:26;12.60;;;7.13;;
62848;SDS011;48941;49.516;8.286;2022-10-03T18:48:58;12.47;;;6.63;;
62848;SDS011;48941;49.516;8.286;2022-10-03T18:51:50;15.73;;;7.10;;
62848;SDS011;48941;49.516;8.286;2022-10-03T18:54:27;12.52;;;6.90;;
62848;SDS011;48941;49.516;8.286;2022-10-03T18:57:02;13.60;;;8.25;;
62848;SDS011;48941;49.516;8.286;2022-10-03T18:59:37;42.28;;;28.75;;
62848;SDS011;48941;49.516;8.286;2022-10-03T19:02:14;29.60;;;17.05;;
62848;SDS011;48941;49.516;8.286;2022-10-03T19:04:49;15.10;;;8.30;;
62848;SDS011;48941;49.516;8.286;2022-10-03T19:07:22;11.70;;;7.28;;
62848;SDS011;48941;49.516;8.286;2022-10-03T19:10:20;14.75;;;6.43;;
62848;SDS011;48941;49.516;8.286;2022-10-03T19:12:54;14.00;;;6.78;;
62848;SDS011;48941;49.516;8.286;2022-10-03T19:15:35;15.75;;;9.18;;
62848;SDS011;48941;49.516;8.286;2022-10-03T19:18:19;14.50;;;7.60;;
62848;SDS011;48941;49.516;8.286;2022-10-03T19:20:52;12.48;;;7.47;;
62848;SDS011;48941;49.516;8.286;2022-10-03T19:23:23;12.63;;;7.05;;
62848;SDS011;48941;49.516;8.286;2022-10-03T19:25:58;16.00;;;8.60;;
62848;SDS011;48941;49.516;8.286;2022-10-03T19:28:31;13.48;;;8.00;;
62848;SDS011;48941;49.516;8.286;2022-10-03T19:31:03;19.77;;;7.85;;
62848;SDS011;48941;49.516;8.286;2022-10-03T19:33:36;11.55;;;6.90;;
62848;SDS011;48941;49.516;8.286;2022-10-03T19:36:11;14.77;;;6.63;;
62848;SDS011;48941;49.516;8.286;2022-10-03T19:38:42;15.25;;;7.63;;
62848;SDS011;48941;49.516;8.286;2022-10-03T19:41:19;12.25;;;7.38;;
62848;SDS011;48941;49.516;8.286;2022-10-03T19:43:53;10.77;;;6.90;;
62848;SDS011;48941;49.516;8.286;2022-10-03T19:46:33;14.05;;;7.07;;
62848;SDS011;48941;49.516;8.286;2022-10-03T19:49:18;11.13;;;7.32;;
62848;SDS011;48941;49.516;8.286;2022-10-03T19:51:50;13.52;;;7.03;;
62848;SDS011;48941;49.516;8.286;2022-10-03T19:54:29;13.63;;;7.38;;